Time;durP1;ratioP1;P1;durP2;ratioP2;P2;SDS_P1;SDS_P2;PMS_P1;PMS_P2;Temp;Humidity;BMP_temperature;BMP_pressure;BME280_temperature;BME280_humidity;BME280_pressure;Samples;Min_cycle;Max_cycle;Signal;HPM_P1;HPM_P2
2022/09/30 00:01:34;;;;;;;0.98;0.52;;;23.50;42.70;;;;;;5066953;28;20045;-46
2022/09/30 00:04:02;;;;;;;2.63;0.43;;;23.40;42.70;;;;;;5067439;28;20397;-46
2022/09/30 00:06:30;;;;;;;0.70;0.30;;;23.40;42.70;;;;;;5050828;28;20072;-46
2022/09/30 00:09:00;;;;;;;1.67;0.93;;;23.40;42.70;;;;;;5048261;28;20040;-45
2022/09/30 00:11:29;;;;;;;1.65;0.68;;;23.40;42.70;;;;;;5048264;28;20045;-45
2022/09/30 00:13:58;;;;;;;1.15;0.35;;;23.40;42.70;;;;;;5047684;28;20072;-48
2022/09/30 00:16:27;;;;;;;1.15;0.80;;;23.30;42.70;;;;;;5047930;28;20497;-46
2022/09/30 00:18:55;;;;;;;1.65;1.05;;;23.30;42.60;;;;;;5058404;28;20047;-46
2022/09/30 00:21:22;;;;;;;1.80;0.80;;;23.30;42.60;;;;;;5067251;28;20040;-46
2022/09/30 00:23:50;;;;;;;0.88;0.77;;;23.30;42.60;;;;;;5050049;28;20056;-45
2022/09/30 00:26:20;;;;;;;2.25;0.30;;;23.20;42.60;;;;;;5048223;28;20056;-46
2022/09/30 00:28:50;;;;;;;0.88;0.50;;;23.20;42.60;;;;;;5059099;28;20588;-46
2022/09/30 00:31:19;;;;;;;1.08;0.30;;;23.20;42.60;;;;;;5067119;28;20048;-46
2022/09/30 00:34:05;;;;;;;1.65;0.40;;;23.10;42.60;;;;;;5060206;28;20048;-48
2022/09/30 00:36:33;;;;;;;0.75;0.20;;;23.10;42.60;;;;;;5065671;28;20634;-47
2022/09/30 00:39:01;;;;;;;1.70;0.28;;;23.10;42.70;;;;;;5050329;28;20513;-45
2022/09/30 00:41:29;;;;;;;1.27;0.50;;;23.10;42.70;;;;;;5067312;28;20131;-46
2022/09/30 00:43:56;;;;;;;0.98;0.32;;;23.10;42.70;;;;;;5065988;28;20059;-45
2022/09/30 00:46:32;;;;;;;1.05;0.28;;;23.00;42.80;;;;;;5061330;28;20041;-44
2022/09/30 00:49:02;;;;;;;0.60;0.57;;;23.00;42.80;;;;;;5067167;28;20550;-48
2022/09/30 00:51:32;;;;;;;0.77;0.77;;;22.90;42.80;;;;;;5066299;28;20052;-45
2022/09/30 00:54:02;;;;;;;2.78;0.60;;;23.00;42.90;;;;;;5060814;28;20079;-45
2022/09/30 00:56:34;;;;;;;4.25;0.77;;;22.90;42.90;;;;;;5071322;28;20037;-45
2022/09/30 00:59:05;;;;;;;1.42;0.40;;;22.90;42.90;;;;;;5063610;28;20743;-45
2022/09/30 01:01:32;;;;;;;0.40;0.20;;;22.90;43.00;;;;;;5069412;28;20055;-45
2022/09/30 01:04:02;;;;;;;0.40;0.40;;;22.80;43.00;;;;;;5056197;28;20047;-45
2022/09/30 01:06:29;;;;;;;2.20;0.25;;;22.80;43.00;;;;;;5039382;28;20504;-45
2022/09/30 01:08:57;;;;;;;0.70;0.38;;;22.80;43.10;;;;;;5070678;28;20080;-49
2022/09/30 01:11:26;;;;;;;3.40;0.70;;;22.80;43.20;;;;;;5053188;28;20082;-46
2022/09/30 01:13:59;;;;;;;1.15;0.20;;;22.80;43.30;;;;;;5056168;28;20097;-46
2022/09/30 01:16:50;;;;;;;0.88;0.50;;;22.80;43.50;;;;;;5062465;28;20202;-48
2022/09/30 01:19:40;;;;;;;0.80;0.20;;;22.80;43.60;;;;;;5046186;28;20166;-47
2022/09/30 01:22:21;;;;;;;0.63;0.32;;;22.80;43.70;;;;;;5056243;28;20110;-47
2022/09/30 01:25:20;;;;;;;3.55;0.40;;;22.70;43.80;;;;;;5051558;28;20037;-47
2022/09/30 01:28:24;;;;;;;0.40;0.30;;;22.70;43.80;;;;;;5066818;28;20039;-50
2022/09/30 01:31:08;;;;;;;1.02;0.30;;;22.70;43.80;;;;;;5027396;28;20091;-47
2022/09/30 01:33:45;;;;;;;1.02;0.30;;;22.60;44.00;;;;;;5028123;28;20046;-48
2022/09/30 01:36:24;;;;;;;0.30;0.20;;;22.70;44.10;;;;;;5027439;28;20808;-49
2022/09/30 01:39:02;;;;;;;0.63;0.40;;;22.60;44.10;;;;;;5011329;28;20132;-48
2022/09/30 01:41:41;;;;;;;1.55;0.47;;;22.60;44.20;;;;;;5003429;28;20100;-46
2022/09/30 01:44:14;;;;;;;0.43;0.35;;;22.50;44.10;;;;;;5008832;28;20057;-51
2022/09/30 01:46:46;;;;;;;1.58;0.70;;;22.50;44.20;;;;;;5011690;28;20048;-46
2022/09/30 01:49:24;;;;;;;0.30;0.20;;;22.50;44.10;;;;;;5025542;28;20045;-47
2022/09/30 01:51:59;;;;;;;0.50;0.50;;;22.50;44.60;;;;;;5016180;28;20084;-47
2022/09/30 01:54:33;;;;;;;1.33;0.63;;;22.50;44.30;;;;;;5016000;28;20049;-49
2022/09/30 01:57:05;;;;;;;0.75;0.30;;;22.50;44.30;;;;;;5026276;28;20132;-50
2022/09/30 01:59:36;;;;;;;0.68;0.68;;;22.40;44.30;;;;;;5014307;28;20042;-46
2022/09/30 02:02:09;;;;;;;0.68;0.68;;;22.40;44.20;;;;;;5016208;28;20608;-47
2022/09/30 02:04:40;;;;;;;0.65;0.20;;;22.40;44.30;;;;;;5027655;28;20140;-46
2022/09/30 02:07:13;;;;;;;4.32;0.30;;;22.40;44.40;;;;;;5019442;28;20053;-47
2022/09/30 02:09:45;;;;;;;1.70;0.40;;;22.40;44.40;;;;;;5050221;28;20057;-46
2022/09/30 02:12:16;;;;;;;0.82;0.20;;;22.40;44.40;;;;;;5060621;28;20117;-45
2022/09/30 02:14:47;;;;;;;0.80;0.30;;;22.30;44.30;;;;;;5065250;28;20045;-47
2022/09/30 02:17:22;;;;;;;0.57;0.30;;;22.40;44.50;;;;;;5068497;28;20583;-48
2022/09/30 02:19:54;;;;;;;1.10;0.28;;;22.30;44.40;;;;;;5069707;28;20048;-46
2022/09/30 02:22:26;;;;;;;1.42;0.32;;;22.30;44.40;;;;;;5056441;28;20056;-47
2022/09/30 02:24:57;;;;;;;2.50;0.20;;;22.30;44.40;;;;;;5044133;28;20153;-47
2022/09/30 02:27:27;;;;;;;1.67;0.70;;;22.30;44.40;;;;;;5057112;28;20501;-46
2022/09/30 02:29:58;;;;;;;2.47;0.38;;;22.30;44.40;;;;;;5067959;28;20131;-46
2022/09/30 02:32:34;;;;;;;0.73;0.20;;;22.20;44.30;;;;;;5069013;28;20040;-47
2022/09/30 02:35:05;;;;;;;0.65;0.30;;;22.20;44.30;;;;;;5069302;28;20053;-46
2022/09/30 02:37:36;;;;;;;1.63;0.38;;;22.20;44.40;;;;;;5066893;28;20033;-45
2022/09/30 02:40:09;;;;;;;0.40;0.13;;;22.20;44.40;;;;;;5049869;28;20560;-46
2022/09/30 02:42:37;;;;;;;0.30;0.30;;;22.20;44.40;;;;;;5050126;28;20112;-47
2022/09/30 02:45:07;;;;;;;3.05;1.02;;;22.20;44.40;;;;;;5049786;28;20053;-47
2022/09/30 02:47:48;;;;;;;0.65;0.20;;;22.10;44.30;;;;;;5049464;28;20052;-46
2022/09/30 02:50:20;;;;;;;2.05;0.15;;;22.10;44.30;;;;;;5055688;28;20463;-45
2022/09/30 02:53:01;;;;;;;0.28;0.28;;;22.10;44.30;;;;;;5043485;28;20040;-46
2022/09/30 02:55:33;;;;;;;1.30;0.35;;;22.10;44.40;;;;;;5052878;28;20076;-46
2022/09/30 02:58:09;;;;;;;0.63;0.30;;;22.10;44.40;;;;;;5069013;28;20045;-45
2022/09/30 03:00:36;;;;;;;;;;;22.10;44.40;;;;;;5062189;28;20072;-45
2022/09/30 03:03:09;;;;;;;1.13;0.30;;;22.00;44.40;;;;;;5068727;28;19925;-45
2022/09/30 03:05:36;;;;;;;0.40;0.22;;;22.00;44.50;;;;;;5067361;28;20228;-45
2022/09/30 03:08:04;;;;;;;2.40;0.32;;;22.00;44.50;;;;;;5067088;28;20139;-48
2022/09/30 03:10:32;;;;;;;0.52;0.40;;;22.00;44.50;;;;;;5069004;28;20051;-49
2022/09/30 03:13:20;;;;;;;0.65;0.20;;;22.00;44.50;;;;;;5066077;28;20095;-48
2022/09/30 03:16:00;;;;;;;1.40;0.22;;;22.00;44.60;;;;;;5042515;28;20053;-49
2022/09/30 03:18:39;;;;;;;0.10;0.10;;;22.00;44.60;;;;;;5066620;28;20052;-46
2022/09/30 03:21:25;;;;;;;1.40;0.20;;;22.00;44.70;;;;;;5066874;28;20173;-49
2022/09/30 03:24:22;;;;;;;0.40;0.20;;;21.90;44.50;;;;;;5047153;28;20047;-46
2022/09/30 03:26:57;;;;;;;1.70;0.43;;;22.00;45.30;;;;;;5049093;28;20100;-47
2022/09/30 03:29:32;;;;;;;0.70;0.27;;;21.90;44.80;;;;;;5055302;28;20107;-46
2022/09/30 03:32:10;;;;;;;0.43;0.10;;;21.90;45.40;;;;;;5060326;28;20094;-48
2022/09/30 03:34:55;;;;;;;0.20;0.20;;;21.90;44.80;;;;;;5056879;28;20537;-48
2022/09/30 03:37:29;;;;;;;1.38;0.40;;;21.90;44.80;;;;;;5044344;28;20048;-46
2022/09/30 03:40:01;;;;;;;2.92;0.17;;;21.90;44.90;;;;;;5048932;28;20048;-46
2022/09/30 03:42:33;;;;;;;2.10;0.40;;;21.90;45.00;;;;;;5047772;28;20248;-46
2022/09/30 03:45:04;;;;;;;1.80;0.20;;;21.80;44.90;;;;;;5048986;28;20140;-48
2022/09/30 03:47:34;;;;;;;1.08;0.55;;;21.90;44.90;;;;;;5064820;28;20135;-46
2022/09/30 03:50:07;;;;;;;0.30;0.30;;;21.90;44.90;;;;;;5067881;28;20124;-46
2022/09/30 03:52:36;;;;;;;2.70;0.77;;;21.90;45.00;;;;;;5058313;28;20048;-47
2022/09/30 03:55:06;;;;;;;0.30;0.20;;;21.80;44.90;;;;;;5060759;28;20055;-46
2022/09/30 03:57:34;;;;;;;0.80;0.30;;;21.80;45.00;;;;;;5067586;28;20044;-47
2022/09/30 04:00:01;;;;;;;0.57;0.30;;;21.80;45.10;;;;;;5067818;28;20420;-46
2022/09/30 04:02:28;;;;;;;1.02;0.20;;;21.80;45.10;;;;;;5048080;28;20041;-46
2022/09/30 04:04:55;;;;;;;1.02;0.30;;;21.80;45.00;;;;;;5048553;28;20047;-48
2022/09/30 04:07:24;;;;;;;3.42;0.30;;;21.80;45.10;;;;;;5047983;28;20072;-47
2022/09/30 04:09:51;;;;;;;0.90;0.40;;;21.80;45.10;;;;;;5048456;28;20619;-47
2022/09/30 04:12:18;;;;;;;0.73;0.50;;;21.80;45.10;;;;;;5053720;28;20040;-48
2022/09/30 04:14:45;;;;;;;0.30;0.30;;;21.80;45.10;;;;;;5067477;28;20052;-49
2022/09/30 04:17:12;;;;;;;0.98;0.10;;;21.80;45.10;;;;;;5067644;28;20072;-46
2022/09/30 04:19:39;;;;;;;2.50;0.40;;;21.70;45.00;;;;;;5052757;28;20041;-49
2022/09/30 04:22:07;;;;;;;0.50;0.20;;;21.70;45.60;;;;;;5048019;28;20040;-46
2022/09/30 04:24:38;;;;;;;1.23;0.38;;;21.70;45.10;;;;;;5050218;28;20069;-48
2022/09/30 04:27:05;;;;;;;3.50;0.20;;;21.70;45.10;;;;;;5048287;28;20039;-48
2022/09/30 04:29:32;;;;;;;2.67;0.40;;;21.70;45.70;;;;;;5065549;28;20039;-48
2022/09/30 04:31:59;;;;;;;1.33;0.43;;;21.70;45.10;;;;;;5067484;28;20045;-47
2022/09/30 04:34:26;;;;;;;1.73;0.30;;;21.70;45.10;;;;;;5067367;28;20497;-47
2022/09/30 04:36:53;;;;;;;0.30;0.25;;;21.70;45.10;;;;;;5054757;28;20136;-46
2022/09/30 04:39:20;;;;;;;0.70;0.47;;;21.70;45.00;;;;;;5053122;28;20044;-46
2022/09/30 04:41:49;;;;;;;0.20;0.20;;;21.70;45.00;;;;;;5067441;28;20047;-46
2022/09/30 04:44:16;;;;;;;0.60;0.30;;;21.70;45.00;;;;;;5067016;28;20041;-48
2022/09/30 04:46:43;;;;;;;0.40;0.30;;;21.70;45.00;;;;;;5067303;28;20471;-48
2022/09/30 04:49:10;;;;;;;1.00;0.85;;;21.70;45.00;;;;;;5062083;28;20389;-47
2022/09/30 04:51:42;;;;;;;0.20;0.20;;;21.60;44.90;;;;;;5062785;28;20041;-48
2022/09/30 04:54:09;;;;;;;0.20;0.20;;;21.60;45.00;;;;;;5060165;28;20060;-47
2022/09/30 04:56:36;;;;;;;1.20;0.20;;;21.60;45.00;;;;;;5067653;28;20040;-48
2022/09/30 04:59:05;;;;;;;0.93;0.63;;;21.60;45.10;;;;;;5052144;28;20590;-47
2022/09/30 05:01:32;;;;;;;0.55;0.25;;;21.60;45.10;;;;;;5048049;28;20554;-45
2022/09/30 05:03:59;;;;;;;0.60;0.20;;;21.60;45.10;;;;;;5048257;28;20045;-48
2022/09/30 05:06:26;;;;;;;0.32;0.20;;;21.60;45.00;;;;;;5066270;28;20058;-47
2022/09/30 05:08:53;;;;;;;0.85;0.30;;;21.60;45.00;;;;;;5067709;28;20072;-47
2022/09/30 05:11:21;;;;;;;2.05;0.20;;;21.60;45.10;;;;;;5067644;28;20124;-49
2022/09/30 05:13:49;;;;;;;1.73;0.57;;;21.60;45.10;;;;;;5067182;28;20083;-47
2022/09/30 05:16:18;;;;;;;0.30;0.30;;;21.60;45.10;;;;;;5067219;28;20032;-47
2022/09/30 05:18:46;;;;;;;0.55;0.30;;;21.60;45.00;;;;;;5067144;28;20123;-48
2022/09/30 05:21:14;;;;;;;0.57;0.28;;;21.50;45.10;;;;;;5066032;28;20078;-46
2022/09/30 05:23:41;;;;;;;1.10;0.57;;;21.60;45.10;;;;;;5048170;28;20035;-47
2022/09/30 05:26:08;;;;;;;0.28;0.15;;;21.50;45.60;;;;;;5048155;28;20071;-47
2022/09/30 05:28:35;;;;;;;0.20;0.20;;;21.50;45.00;;;;;;5058347;28;20076;-48
2022/09/30 05:31:05;;;;;;;1.23;0.20;;;21.50;45.00;;;;;;5067466;28;20052;-50
2022/09/30 05:33:34;;;;;;;0.77;0.20;;;21.50;45.00;;;;;;5067128;28;20032;-47
2022/09/30 05:36:05;;;;;;;0.30;0.30;;;21.50;45.00;;;;;;5054452;28;20071;-46
2022/09/30 05:38:32;;;;;;;0.30;0.30;;;21.50;45.00;;;;;;5047612;28;20116;-48
2022/09/30 05:41:06;;;;;;;0.43;0.30;;;21.50;45.00;;;;;;5045184;28;20052;-46
2022/09/30 05:43:33;;;;;;;1.08;0.30;;;21.50;45.00;;;;;;5053063;28;20053;-46
2022/09/30 05:46:00;;;;;;;1.73;0.32;;;21.50;45.00;;;;;;5050769;28;20045;-47
2022/09/30 05:48:27;;;;;;;0.55;0.20;;;21.50;45.00;;;;;;5063159;28;20123;-46
2022/09/30 05:50:56;;;;;;;0.52;0.47;;;21.50;45.00;;;;;;5060383;28;20128;-47
2022/09/30 05:53:23;;;;;;;0.25;0.20;;;21.50;45.00;;;;;;5046776;28;20048;-46
2022/09/30 05:55:52;;;;;;;0.20;0.20;;;21.40;44.90;;;;;;5050183;28;20047;-46
2022/09/30 05:58:20;;;;;;;1.30;0.40;;;21.40;44.90;;;;;;5050384;28;20119;-48
2022/09/30 06:00:48;;;;;;;2.10;0.20;;;21.40;44.90;;;;;;5043980;28;20045;-46
2022/09/30 06:03:16;;;;;;;1.30;0.55;;;21.40;44.90;;;;;;5043784;28;20124;-46
2022/09/30 06:05:44;;;;;;;0.20;0.20;;;21.40;44.90;;;;;;5056650;28;20126;-46
2022/09/30 06:08:13;;;;;;;0.93;0.17;;;21.40;44.90;;;;;;5043435;28;20033;-46
2022/09/30 06:10:41;;;;;;;1.88;0.30;;;21.40;44.90;;;;;;5044200;28;20124;-46
2022/09/30 06:13:08;;;;;;;0.40;0.40;;;21.40;44.90;;;;;;5050545;28;20586;-46
2022/09/30 06:15:36;;;;;;;0.35;0.25;;;21.40;44.90;;;;;;5040858;28;20041;-46
2022/09/30 06:18:04;;;;;;;0.20;0.20;;;21.40;45.00;;;;;;5044011;28;20416;-45
2022/09/30 06:20:31;;;;;;;0.77;0.20;;;21.40;45.00;;;;;;5050456;28;20124;-46
2022/09/30 06:22:59;;;;;;;0.28;0.20;;;21.40;45.00;;;;;;5054050;28;20048;-47
2022/09/30 06:25:29;;;;;;;0.88;0.20;;;21.40;45.00;;;;;;5046000;28;20497;-46
2022/09/30 06:27:56;;;;;;;3.10;0.40;;;21.40;45.00;;;;;;5050679;28;20047;-51
2022/09/30 06:30:24;;;;;;;0.80;0.20;;;21.30;44.90;;;;;;5050807;28;20053;-48
2022/09/30 06:32:52;;;;;;;0.82;0.30;;;21.30;45.00;;;;;;5062596;28;20434;-50
2022/09/30 06:35:22;;;;;;;1.45;0.30;;;21.30;44.90;;;;;;5067676;28;20155;-46
2022/09/30 06:37:51;;;;;;;0.45;0.30;;;21.40;45.00;;;;;;5069180;28;20052;-48
2022/09/30 06:40:18;;;;;;;1.27;0.35;;;21.40;45.00;;;;;;5068969;28;20046;-47
2022/09/30 06:42:47;;;;;;;0.38;0.38;;;21.30;44.90;;;;;;5068964;28;20041;-47
2022/09/30 06:45:14;;;;;;;2.92;0.73;;;21.30;45.00;;;;;;5064082;28;20048;-47
2022/09/30 06:47:41;;;;;;;0.28;0.20;;;21.40;45.00;;;;;;5062752;28;20437;-46
2022/09/30 06:50:09;;;;;;;1.30;0.40;;;21.30;45.50;;;;;;5061540;28;20053;-46
2022/09/30 06:52:36;;;;;;;0.30;0.30;;;21.30;45.00;;;;;;5049451;28;20041;-46
2022/09/30 06:55:03;;;;;;;2.47;0.50;;;21.40;45.00;;;;;;5048443;28;20151;-48
2022/09/30 06:57:30;;;;;;;0.85;0.20;;;21.30;44.90;;;;;;5062847;28;20056;-47
2022/09/30 06:59:59;;;;;;;0.40;0.22;;;21.30;44.90;;;;;;5069019;28;20044;-47
2022/09/30 07:02:27;;;;;;;1.83;0.63;;;21.30;44.90;;;;;;5068288;28;20039;-46
2022/09/30 07:04:54;;;;;;;0.90;0.60;;;21.30;44.90;;;;;;5068606;28;20110;-46
2022/09/30 07:07:21;;;;;;;0.60;0.38;;;21.30;44.90;;;;;;5066758;28;20071;-47
2022/09/30 07:09:48;;;;;;;1.52;0.75;;;21.30;44.80;;;;;;5040244;28;20049;-45
2022/09/30 07:12:16;;;;;;;0.40;0.40;;;21.30;44.80;;;;;;5068376;28;20045;-46
2022/09/30 07:14:43;;;;;;;1.35;0.45;;;21.40;44.80;;;;;;5063197;28;20055;-46
2022/09/30 07:17:11;;;;;;;3.28;0.50;;;21.30;44.70;;;;;;5066948;28;20140;-47
2022/09/30 07:19:38;;;;;;;1.27;0.20;;;21.30;44.70;;;;;;5067988;28;20051;-47
2022/09/30 07:24:46;;;;;;;1.85;0.38;;;21.30;44.60;;;;;;5046025;28;20127;-45
2022/09/30 07:27:13;;;;;;;0.93;0.50;;;21.30;44.60;;;;;;5064421;28;20048;-45
2022/09/30 07:29:41;;;;;;;8.93;1.13;;;21.30;45.20;;;;;;5052279;28;20041;-52
2022/09/30 07:32:08;;;;;;;6.78;1.52;;;21.30;44.50;;;;;;5030725;28;20053;-50
2022/09/30 07:34:41;;;;;;;3.80;0.80;;;21.30;44.80;;;;;;5056756;28;20040;-51
2022/09/30 07:37:08;;;;;;;5.15;0.82;;;21.30;45.30;;;;;;5062711;28;20048;-53
2022/09/30 07:39:35;;;;;;;4.28;0.70;;;21.20;45.50;;;;;;5062382;28;20487;-48
2022/09/30 07:42:03;;;;;;;2.35;0.50;;;21.10;46.20;;;;;;5061301;28;20025;-48
2022/09/30 07:44:30;;;;;;;2.03;0.82;;;21.10;45.80;;;;;;5058057;28;20041;-47
2022/09/30 07:46:58;;;;;;;8.00;1.80;;;21.10;45.90;;;;;;5046124;28;20040;-55
2022/09/30 07:49:25;;;;;;;3.22;0.70;;;21.10;46.10;;;;;;5059042;28;20037;-51
2022/09/30 07:51:55;;;;;;;1.75;0.40;;;21.00;46.30;;;;;;5051321;28;20037;-54
2022/09/30 07:54:23;;;;;;;5.72;0.73;;;21.10;46.60;;;;;;5051897;28;20041;-54
2022/09/30 07:56:51;;;;;;;2.70;0.40;;;21.00;46.70;;;;;;5048385;28;20393;-48
2022/09/30 07:59:20;;;;;;;0.85;0.73;;;21.10;46.90;;;;;;5052371;28;20754;-52
2022/09/30 08:01:48;;;;;;;0.82;0.35;;;21.10;46.90;;;;;;5057234;28;20067;-47
2022/09/30 08:04:17;;;;;;;1.92;1.02;;;21.20;47.10;;;;;;5050375;28;20033;-51
2022/09/30 08:06:46;;;;;;;1.30;0.38;;;21.20;47.00;;;;;;5066176;28;20148;-48
2022/09/30 08:09:15;;;;;;;1.13;0.45;;;21.30;47.10;;;;;;5059972;28;20123;-49
2022/09/30 08:11:43;;;;;;;3.55;0.50;;;21.30;47.10;;;;;;5063579;28;20049;-48
2022/09/30 08:14:14;;;;;;;2.60;0.60;;;21.30;47.00;;;;;;5045660;28;20413;-48
2022/09/30 08:16:41;;;;;;;1.17;0.30;;;21.40;47.00;;;;;;5050560;28;20509;-47
2022/09/30 08:19:14;;;;;;;2.35;0.30;;;21.40;46.90;;;;;;5056116;28;20051;-50
2022/09/30 08:21:42;;;;;;;0.63;0.50;;;21.50;46.90;;;;;;5042508;28;20513;-54
2022/09/30 08:24:09;;;;;;;5.18;1.00;;;21.50;46.80;;;;;;5046671;28;20494;-52
2022/09/30 08:26:38;;;;;;;2.58;0.40;;;21.50;46.70;;;;;;5045324;28;20486;-54
2022/09/30 08:29:06;;;;;;;0.50;0.50;;;21.60;46.70;;;;;;5044933;28;20421;-57
2022/09/30 08:31:33;;;;;;;2.38;1.00;;;21.60;46.70;;;;;;5042397;28;20095;-52
2022/09/30 08:34:02;;;;;;;3.05;0.93;;;21.60;46.60;;;;;;5051435;28;20055;-52
2022/09/30 08:36:29;;;;;;;1.77;0.98;;;21.70;46.50;;;;;;5055380;28;20037;-54
2022/09/30 08:38:57;;;;;;;1.27;0.50;;;21.70;46.50;;;;;;5055311;28;20041;-53
2022/09/30 08:41:38;;;;;;;2.90;0.88;;;21.70;46.40;;;;;;5056995;28;20055;-56
2022/09/30 08:44:21;;;;;;;4.85;1.38;;;21.80;46.30;;;;;;5048024;28;20355;-58
2022/09/30 08:46:57;;;;;;;2.05;0.85;;;21.80;46.30;;;;;;5050582;28;20055;-48
2022/09/30 08:49:39;;;;;;;1.40;1.17;;;21.80;46.30;;;;;;5056083;28;20048;-52
2022/09/30 08:52:15;;;;;;;1.58;0.63;;;21.90;46.30;;;;;;5047328;28;20412;-53
2022/09/30 08:54:47;;;;;;;1.67;0.85;;;21.80;46.30;;;;;;5054138;28;20037;-53
2022/09/30 08:57:14;;;;;;;3.03;1.13;;;21.80;46.20;;;;;;5064334;28;20067;-50
2022/09/30 08:59:46;;;;;;;3.13;0.75;;;21.80;46.10;;;;;;5056650;28;20082;-51
2022/09/30 09:02:20;;;;;;;1.38;0.30;;;21.90;46.20;;;;;;5034499;28;20036;-50
2022/09/30 09:04:50;;;;;;;1.08;0.98;;;21.90;46.20;;;;;;5046697;28;20029;-53
2022/09/30 09:07:31;;;;;;;2.97;0.38;;;21.90;46.20;;;;;;5060003;28;20045;-55
2022/09/30 09:10:07;;;;;;;1.67;0.35;;;21.90;46.10;;;;;;5049694;28;20846;-49
2022/09/30 09:12:41;;;;;;;1.05;0.88;;;21.90;46.20;;;;;;5050686;28;20831;-48
2022/09/30 09:15:33;;;;;;;5.35;2.03;;;22.00;46.20;;;;;;5060600;28;20094;-49
2022/09/30 09:18:17;;;;;;;2.47;0.32;;;21.90;45.80;;;;;;5047102;28;20061;-48
2022/09/30 09:20:53;;;;;;;2.38;0.60;;;21.90;45.40;;;;;;5063560;28;20040;-48
2022/09/30 09:23:20;;;;;;;1.45;0.30;;;21.90;45.40;;;;;;5063417;28;20064;-44
2022/09/30 09:25:51;;;;;;;3.75;0.63;;;21.90;45.60;;;;;;5065117;28;20036;-46
2022/09/30 09:28:28;;;;;;;4.53;0.40;;;21.90;45.40;;;;;;5058919;28;20044;-46
2022/09/30 09:30:59;;;;;;;4.68;0.93;;;22.00;45.30;;;;;;5050451;28;20080;-46
2022/09/30 09:33:30;;;;;;;5.78;0.63;;;22.00;45.60;;;;;;5059564;28;20043;-45
2022/09/30 09:36:10;;;;;;;1.75;0.43;;;22.00;45.70;;;;;;5055958;28;20040;-45
2022/09/30 09:38:50;;;;;;;2.00;0.88;;;22.00;45.80;;;;;;5063028;28;20043;-46
2022/09/30 09:41:29;;;;;;;2.67;0.95;;;22.10;45.80;;;;;;5060458;28;20041;-47
2022/09/30 09:44:05;;;;;;;0.98;0.98;;;22.10;45.80;;;;;;5064976;28;20124;-47
2022/09/30 09:46:41;;;;;;;3.22;0.30;;;22.10;45.70;;;;;;5067522;28;20123;-48
2022/09/30 09:49:38;;;;;;;;;;;22.20;45.60;;;;;;5052428;28;20050;-47
2022/09/30 09:52:44;;;;;;;4.50;1.00;;;22.20;45.50;;;;;;5064445;28;19966;-47
2022/09/30 09:55:13;;;;;;;1.63;0.57;;;22.30;45.40;;;;;;5054376;28;20520;-48
2022/09/30 09:57:40;;;;;;;10.60;2.13;;;22.30;45.20;;;;;;5063035;28;20406;-47
2022/09/30 10:03:04;;;;;;;3.70;0.60;;;22.50;44.90;;;;;;5054643;28;20045;-50
2022/09/30 10:05:38;;;;;;;1.85;0.55;;;22.60;44.60;;;;;;5060009;28;20546;-54
2022/09/30 10:08:11;;;;;;;2.08;0.15;;;22.60;44.30;;;;;;5050460;28;20037;-52
2022/09/30 10:10:47;;;;;;;1.55;0.43;;;22.60;43.80;;;;;;5055694;28;20067;-50
2022/09/30 10:13:20;;;;;;;1.17;0.30;;;22.70;43.50;;;;;;5055171;28;20052;-52
2022/09/30 10:15:49;;;;;;;1.40;0.52;;;22.70;43.30;;;;;;5057375;28;20145;-52
2022/09/30 10:18:25;;;;;;;2.80;0.35;;;22.80;43.20;;;;;;5052230;28;20489;-53
2022/09/30 10:20:56;;;;;;;1.77;0.63;;;22.80;42.90;;;;;;5052090;28;20203;-53
2022/09/30 10:23:27;;;;;;;0.38;0.20;;;22.90;42.80;;;;;;5054704;28;20033;-54
2022/09/30 10:25:57;;;;;;;6.05;1.10;;;22.90;42.50;;;;;;5049850;28;20126;-52
2022/09/30 10:28:27;;;;;;;0.43;0.25;;;22.90;42.40;;;;;;5065047;28;20043;-53
2022/09/30 10:30:58;;;;;;;3.13;0.10;;;23.00;42.40;;;;;;5055523;28;20105;-53
2022/09/30 10:33:34;;;;;;;1.95;0.10;;;23.00;42.40;;;;;;5058718;28;20041;-51
2022/09/30 10:36:06;;;;;;;0.98;0.30;;;23.10;42.40;;;;;;5059838;28;20049;-51
2022/09/30 10:38:35;;;;;;;0.63;0.10;;;23.10;42.30;;;;;;5057508;28;20080;-53
2022/09/30 10:41:04;;;;;;;1.38;0.20;;;23.30;42.40;;;;;;5060570;28;20518;-51
2022/09/30 10:43:37;;;;;;;0.93;0.10;;;23.30;42.20;;;;;;5059283;28;20048;-53
2022/09/30 10:46:05;;;;;;;0.20;0.10;;;23.40;42.00;;;;;;5061214;28;20416;-52
2022/09/30 10:48:36;;;;;;;2.33;0.85;;;23.40;41.80;;;;;;5050327;28;20043;-52
2022/09/30 10:51:04;;;;;;;2.22;0.10;;;23.50;41.90;;;;;;5045699;28;20043;-47
2022/09/30 10:53:34;;;;;;;3.83;0.10;;;23.50;41.90;;;;;;5057854;28;20113;-47
2022/09/30 10:56:04;;;;;;;0.82;0.10;;;23.60;41.80;;;;;;5064008;28;20044;-48
2022/09/30 10:58:43;;;;;;;1.45;0.28;;;23.70;41.90;;;;;;5055886;28;20568;-51
2022/09/30 11:01:20;;;;;;;1.02;0.10;;;23.80;41.80;;;;;;5043580;28;20059;-48
2022/09/30 11:04:01;;;;;;;1.30;0.10;;;23.80;41.80;;;;;;5048042;28;20501;-46
2022/09/30 11:06:31;;;;;;;2.58;0.10;;;23.90;41.90;;;;;;5046523;28;20044;-47
2022/09/30 11:09:04;;;;;;;1.90;0.13;;;24.00;41.90;;;;;;5053131;28;20069;-49
2022/09/30 11:11:38;;;;;;;4.50;0.10;;;24.10;41.90;;;;;;5058583;28;20132;-52
2022/09/30 11:14:20;;;;;;;3.72;0.10;;;24.10;41.90;;;;;;5061909;28;20492;-49
2022/09/30 11:16:52;;;;;;;7.22;0.20;;;24.20;42.00;;;;;;5048947;28;20479;-51
2022/09/30 11:19:27;;;;;;;6.38;0.20;;;24.20;41.90;;;;;;5048924;28;20041;-52
2022/09/30 11:21:57;;;;;;;1.60;0.10;;;24.30;41.80;;;;;;5058641;28;20059;-53
2022/09/30 11:24:32;;;;;;;1.73;0.10;;;24.40;41.70;;;;;;5060393;28;20041;-55
2022/09/30 11:27:07;;;;;;;0.75;0.10;;;24.40;41.50;;;;;;5057878;28;20049;-56
2022/09/30 11:29:49;;;;;;;0.10;0.10;;;24.50;41.40;;;;;;5063814;28;20045;-54
2022/09/30 11:32:30;;;;;;;2.63;0.10;;;24.50;41.90;;;;;;5058356;28;20137;-52
2022/09/30 11:35:09;;;;;;;0.55;0.47;;;24.60;41.20;;;;;;5060016;28;20037;-51
2022/09/30 11:38:03;;;;;;;0.70;0.00;;;24.60;41.10;;;;;;5058132;28;20037;-51
2022/09/30 11:40:36;;;;;;;0.10;0.05;;;24.70;40.90;;;;;;5056228;28;20048;-56
2022/09/30 11:43:15;;;;;;;0.95;0.10;;;24.80;40.90;;;;;;5066763;28;20127;-54
2022/09/30 11:46:07;;;;;;;0.93;0.68;;;24.80;40.90;;;;;;5058818;28;20070;-52
2022/09/30 11:48:48;;;;;;;0.15;0.00;;;24.90;40.80;;;;;;5059389;28;20044;-55
2022/09/30 11:51:22;;;;;;;1.17;0.28;;;24.90;40.70;;;;;;5060261;28;20036;-61
2022/09/30 11:54:03;;;;;;;0.28;0.10;;;25.00;40.60;;;;;;5051199;28;20045;-58
2022/09/30 11:56:41;;;;;;;0.10;0.10;;;25.00;40.50;;;;;;5052127;28;20075;-59
2022/09/30 11:59:17;;;;;;;0.73;0.13;;;25.10;40.40;;;;;;5061345;28;20040;-59
2022/09/30 12:01:48;;;;;;;2.72;0.75;;;25.10;40.40;;;;;;5049076;28;20059;-59
2022/09/30 12:04:20;;;;;;;0.25;0.10;;;25.20;40.30;;;;;;5048261;28;20065;-56
2022/09/30 12:06:53;;;;;;;2.45;1.00;;;25.20;40.20;;;;;;5060616;28;20039;-58
2022/09/30 12:09:24;;;;;;;0.57;0.10;;;25.30;40.20;;;;;;5065320;28;20068;-57
2022/09/30 12:11:56;;;;;;;0.30;0.10;;;25.30;40.10;;;;;;5058661;28;20075;-55
2022/09/30 12:14:28;;;;;;;0.75;0.10;;;25.30;40.00;;;;;;5048047;28;20796;-60
2022/09/30 12:16:57;;;;;;;0.95;0.10;;;25.40;40.00;;;;;;5051442;28;20047;-55
2022/09/30 12:19:30;;;;;;;2.90;0.10;;;25.40;40.50;;;;;;5050480;28;20041;-57
2022/09/30 12:22:04;;;;;;;3.15;0.10;;;25.40;39.90;;;;;;5046721;28;20045;-55
2022/09/30 12:24:36;;;;;;;0.10;0.10;;;25.50;40.10;;;;;;5046865;28;20033;-60
2022/09/30 12:27:04;;;;;;;0.20;0.10;;;25.60;40.00;;;;;;5056007;28;20043;-57
2022/09/30 12:32:48;;;;;;;1.13;0.10;;;25.60;39.80;;;;;;5052570;28;20037;-56
2022/09/30 12:35:53;;;;;;;1.13;0.10;;;25.70;39.90;;;;;;5053124;28;20516;-55
2022/09/30 12:38:37;;;;;;;0.10;0.10;;;25.70;39.80;;;;;;5043611;28;20122;-52
2022/09/30 12:41:23;;;;;;;5.45;0.10;;;25.70;39.80;;;;;;5060393;28;20044;-60
2022/09/30 12:44:31;;;;;;;0.17;0.10;;;25.70;39.70;;;;;;5057595;28;20539;-54
2022/09/30 12:47:08;;;;;;;0.30;0.10;;;25.80;39.70;;;;;;5058230;28;20060;-60
2022/09/30 12:49:39;;;;;;;0.35;0.00;;;25.80;39.60;;;;;;5063441;28;20513;-55
2022/09/30 12:52:11;;;;;;;5.20;0.10;;;25.80;39.70;;;;;;5052424;28;20029;-56
2022/09/30 12:54:44;;;;;;;0.30;0.20;;;25.90;39.90;;;;;;5057576;28;20036;-54
2022/09/30 12:57:11;;;;;;;4.10;0.35;;;25.90;39.80;;;;;;5055985;28;20116;-53
2022/09/30 12:59:49;;;;;;;0.15;0.10;;;26.00;39.80;;;;;;5052143;28;20060;-58
2022/09/30 13:02:30;;;;;;;0.32;0.05;;;26.00;39.80;;;;;;5061042;28;20051;-54
2022/09/30 13:05:56;;;;;;;0.10;0.08;;;26.10;39.80;;;;;;5063944;28;20044;-53
2022/09/30 13:09:02;;;;;;;1.02;0.32;;;26.10;40.30;;;;;;5055562;28;20051;-51
2022/09/30 13:11:36;;;;;;;2.13;0.00;;;26.20;39.80;;;;;;5053134;28;20478;-52
2022/09/30 13:14:16;;;;;;;0.10;0.10;;;26.30;39.80;;;;;;5068905;28;20077;-51
2022/09/30 13:17:18;;;;;;;0.60;0.00;;;26.30;39.70;;;;;;5048488;28;20564;-55
2022/09/30 13:19:46;;;;;;;0.47;0.10;;;26.40;39.60;;;;;;5064837;28;20043;-53
2022/09/30 13:22:42;;;;;;;0.90;0.10;;;26.50;39.60;;;;;;5062879;28;20627;-47
2022/09/30 13:25:14;;;;;;;1.35;0.10;;;26.50;39.40;;;;;;5058211;28;20080;-51